Time;durP1;ratioP1;P1;durP2;ratioP2;P2;SDS_P1;SDS_P2;PMS_P1;PMS_P2;Temp;Humidity;BMP_temperature;BMP_pressure;BME280_temperature;BME280_humidity;BME280_pressure;Samples;Min_cycle;Max_cycle;Signal;HPM_P1;HPM_P2
2022/09/16 00:00:34;;;;;;;2.78;0.70;;;13.30;99.90;;;;;;5028475;28;20864;-72
2022/09/16 00:03:00;;;;;;;1.48;0.30;;;13.30;99.90;;;;;;5027940;28;20072;-71
2022/09/16 00:05:26;;;;;;;3.42;0.30;;;13.30;99.90;;;;;;5030346;28;20478;-70
2022/09/16 00:07:53;;;;;;;3.25;0.45;;;13.30;99.90;;;;;;5031761;28;20040;-72
2022/09/16 00:10:18;;;;;;;1.70;0.20;;;13.20;99.90;;;;;;5030899;28;20039;-72
2022/09/16 00:12:44;;;;;;;3.08;0.47;;;13.20;99.90;;;;;;5027618;28;20148;-72
2022/09/16 00:15:10;;;;;;;5.47;0.38;;;13.20;99.90;;;;;;5025418;28;20065;-71
2022/09/16 00:17:36;;;;;;;18.63;1.00;;;13.20;99.90;;;;;;5027742;28;20075;-71
2022/09/16 00:20:03;;;;;;;5.07;0.52;;;13.20;99.90;;;;;;5027115;28;20063;-71
2022/09/16 00:22:29;;;;;;;3.83;0.40;;;13.20;99.90;;;;;;5026903;28;20044;-72
2022/09/16 00:24:54;;;;;;;3.80;0.73;;;13.20;99.90;;;;;;5026751;28;20034;-72
2022/09/16 00:27:20;;;;;;;4.15;1.08;;;13.20;99.90;;;;;;5027289;28;20033;-72
2022/09/16 00:29:46;;;;;;;6.20;0.50;;;13.20;99.90;;;;;;5020523;28;20487;-71
2022/09/16 00:32:11;;;;;;;3.97;0.43;;;13.20;99.90;;;;;;5018297;28;20037;-71
2022/09/16 00:34:37;;;;;;;4.40;0.40;;;13.20;99.90;;;;;;5026996;28;20494;-72
2022/09/16 00:37:07;;;;;;;3.33;0.60;;;13.20;99.90;;;;;;5025682;28;20061;-72
2022/09/16 00:39:33;;;;;;;5.68;0.38;;;13.20;99.90;;;;;;5027302;28;20037;-71
2022/09/16 00:41:59;;;;;;;3.78;0.45;;;13.10;99.90;;;;;;5026296;28;20430;-71
2022/09/16 00:44:51;;;;;;;4.50;0.52;;;13.10;99.90;;;;;;5026512;28;20030;-71
2022/09/16 00:47:31;;;;;;;6.50;0.57;;;13.10;99.90;;;;;;5023427;28;20897;-71
2022/09/16 00:50:12;;;;;;;2.00;0.20;;;13.10;99.90;;;;;;5025088;28;20409;-72
2022/09/16 00:52:39;;;;;;;7.88;0.55;;;13.10;99.90;;;;;;5026745;28;20036;-72
2022/09/16 00:55:08;;;;;;;3.65;0.47;;;13.10;99.90;;;;;;5026271;28;20085;-71
2022/09/16 00:57:35;;;;;;;2.55;0.40;;;13.10;99.90;;;;;;5027461;28;20034;-72
2022/09/16 01:00:03;;;;;;;4.75;0.40;;;13.00;99.90;;;;;;5027385;28;22061;-68
2022/09/16 01:02:29;;;;;;;6.10;0.50;;;13.00;99.90;;;;;;5027657;28;20476;-70
2022/09/16 01:05:03;;;;;;;4.30;0.30;;;13.00;99.90;;;;;;5028920;28;20116;-71
2022/09/16 01:07:49;;;;;;;2.75;0.20;;;13.00;99.90;;;;;;5029121;28;20037;-69
2022/09/16 01:10:17;;;;;;;5.38;0.85;;;13.00;99.90;;;;;;5024735;28;20033;-70
2022/09/16 01:12:47;;;;;;;2.90;0.50;;;13.00;99.90;;;;;;5024604;28;20037;-69
2022/09/16 01:15:14;;;;;;;3.67;0.93;;;13.00;99.90;;;;;;5022337;28;20088;-71
2022/09/16 01:17:58;;;;;;;1.73;0.40;;;13.00;99.90;;;;;;5027168;28;20037;-71
2022/09/16 01:20:38;;;;;;;5.35;0.73;;;13.00;99.90;;;;;;5024316;28;20041;-70
2022/09/16 01:23:31;;;;;;;2.67;0.47;;;13.00;99.90;;;;;;5026341;28;20038;-71
2022/09/16 01:26:30;;;;;;;1.88;0.57;;;13.00;99.90;;;;;;5022924;28;20051;-71
2022/09/16 01:29:11;;;;;;;5.55;0.43;;;13.00;99.90;;;;;;5024309;28;20033;-71
2022/09/16 01:31:49;;;;;;;;;;;13.00;99.90;;;;;;5026942;28;20037;-71
2022/09/16 01:34:47;;;;;;;3.70;0.47;;;12.90;99.90;;;;;;5023528;28;20316;-71
2022/09/16 01:37:33;;;;;;;9.77;0.68;;;12.80;99.90;;;;;;5027285;28;20048;-71
2022/09/16 01:40:17;;;;;;;4.82;0.30;;;12.80;99.90;;;;;;5025016;28;20486;-68
2022/09/16 01:43:06;;;;;;;6.40;0.63;;;12.70;99.90;;;;;;5021923;28;20045;-71
2022/09/16 01:45:52;;;;;;;3.83;0.68;;;12.70;99.90;;;;;;5025559;28;20113;-71
2022/09/16 01:48:28;;;;;;;1.67;0.30;;;12.70;99.90;;;;;;5022224;28;20060;-69
2022/09/16 01:51:40;;;;;;;3.30;0.70;;;12.60;99.90;;;;;;5020965;28;20140;-73
2022/09/16 01:54:19;;;;;;;6.85;0.60;;;12.50;99.90;;;;;;5018696;28;20033;-72
2022/09/16 01:56:53;;;;;;;2.40;0.80;;;12.50;99.90;;;;;;5021804;28;20033;-71
2022/09/16 01:59:44;;;;;;;3.60;0.80;;;12.60;99.90;;;;;;5025811;28;20037;-70
2022/09/16 02:02:28;;;;;;;8.18;1.10;;;12.60;99.90;;;;;;5019430;28;20033;-72
2022/09/16 02:04:56;;;;;;;2.83;0.88;;;12.70;99.90;;;;;;5024938;28;20038;-72
2022/09/16 02:07:27;;;;;;;3.88;0.40;;;12.70;99.90;;;;;;5025415;28;20560;-71
2022/09/16 02:10:11;;;;;;;3.70;0.60;;;12.70;99.90;;;;;;5025329;28;20041;-72
2022/09/16 02:12:42;;;;;;;1.15;0.30;;;12.70;99.90;;;;;;5024639;28;20056;-72
2022/09/16 02:15:11;;;;;;;2.22;0.30;;;12.70;99.90;;;;;;5022905;28;20083;-72
2022/09/16 02:17:43;;;;;;;2.15;0.40;;;12.80;99.90;;;;;;5026973;28;20049;-72
2022/09/16 02:20:14;;;;;;;6.90;0.52;;;12.80;99.90;;;;;;5021100;28;20498;-70
2022/09/16 02:22:47;;;;;;;6.03;0.60;;;12.80;99.90;;;;;;5021779;28;20029;-72
2022/09/16 02:25:16;;;;;;;2.92;0.40;;;12.80;99.90;;;;;;5021177;28;20033;-71
2022/09/16 02:27:44;;;;;;;5.88;0.70;;;12.80;99.90;;;;;;5025987;28;20022;-72
2022/09/16 02:30:21;;;;;;;4.78;0.45;;;12.90;99.90;;;;;;5016824;28;20033;-70
2022/09/16 02:33:01;;;;;;;13.00;1.35;;;12.90;99.90;;;;;;5016495;28;20817;-69
2022/09/16 02:35:28;;;;;;;3.13;0.30;;;12.80;99.90;;;;;;5024297;28;20087;-71
2022/09/16 02:38:01;;;;;;;2.22;0.20;;;12.70;99.90;;;;;;5023655;28;20037;-71
2022/09/16 02:40:36;;;;;;;0.95;0.20;;;12.60;99.90;;;;;;5024894;28;20048;-70
2022/09/16 02:43:02;;;;;;;1.35;0.13;;;12.50;99.90;;;;;;5026380;28;20095;-72
2022/09/16 02:45:47;;;;;;;0.93;0.10;;;12.40;99.90;;;;;;5027708;28;20057;-72
2022/09/16 02:48:58;;;;;;;1.67;0.22;;;12.30;99.90;;;;;;5025128;28;20140;-72
2022/09/16 02:51:51;;;;;;;0.93;0.15;;;12.30;99.90;;;;;;4977815;28;20039;-72
2022/09/16 02:54:45;;;;;;;2.47;0.20;;;12.30;99.90;;;;;;4982112;28;20786;-71
2022/09/16 02:57:11;;;;;;;4.28;0.40;;;12.20;99.90;;;;;;5015305;28;20033;-71
2022/09/16 02:59:37;;;;;;;3.25;0.22;;;12.30;99.90;;;;;;5032367;28;20037;-71
2022/09/16 03:02:03;;;;;;;5.22;0.50;;;12.20;99.90;;;;;;5038669;28;20022;-72
2022/09/16 03:04:29;;;;;;;2.47;0.28;;;12.20;99.90;;;;;;5036378;28;20039;-72
2022/09/16 03:06:55;;;;;;;6.00;0.60;;;12.20;99.90;;;;;;5029343;28;20025;-71
2022/09/16 03:09:23;;;;;;;4.70;1.30;;;12.20;99.90;;;;;;5027468;28;20037;-71
2022/09/16 03:12:12;;;;;;;1.63;0.30;;;12.20;99.90;;;;;;5028835;28;20041;-71
2022/09/16 03:14:46;;;;;;;7.40;0.30;;;12.20;99.90;;;;;;5022545;28;20041;-71
2022/09/16 03:17:42;;;;;;;2.25;0.40;;;12.20;99.90;;;;;;5023976;28;20498;-72
2022/09/16 03:20:36;;;;;;;4.25;0.35;;;12.20;99.90;;;;;;5027015;28;20033;-71
2022/09/16 03:23:25;;;;;;;4.97;0.82;;;12.20;99.90;;;;;;5027171;28;20037;-72
2022/09/16 03:26:15;;;;;;;5.72;0.77;;;12.30;99.90;;;;;;5030871;28;20029;-72
2022/09/16 03:29:11;;;;;;;4.07;0.38;;;12.30;99.90;;;;;;5027991;28;20053;-72
2022/09/16 03:31:48;;;;;;;2.80;0.20;;;12.30;99.90;;;;;;5028091;28;20130;-70
2022/09/16 03:34:18;;;;;;;2.90;0.30;;;12.40;99.90;;;;;;5022488;28;20061;-72
2022/09/16 03:36:51;;;;;;;3.50;0.65;;;12.40;99.90;;;;;;5028139;28;20041;-72
2022/09/16 03:39:17;;;;;;;4.55;0.30;;;12.40;99.90;;;;;;5028358;28;20083;-72
2022/09/16 03:41:44;;;;;;;4.65;0.20;;;12.40;99.90;;;;;;5026932;28;20076;-69
2022/09/16 03:44:10;;;;;;;3.20;0.30;;;12.30;99.90;;;;;;5027276;28;20851;-71
2022/09/16 03:46:35;;;;;;;2.38;0.20;;;12.30;99.90;;;;;;5028321;28;20124;-69
2022/09/16 03:49:01;;;;;;;4.15;0.20;;;12.30;99.90;;;;;;5028059;28;20033;-72
2022/09/16 03:51:27;;;;;;;2.72;0.40;;;12.30;99.90;;;;;;5027802;28;20045;-69
2022/09/16 03:53:53;;;;;;;1.83;0.40;;;12.20;99.90;;;;;;5027483;28;20090;-68
2022/09/16 03:56:19;;;;;;;2.67;0.30;;;12.30;99.90;;;;;;5027951;28;20487;-71
2022/09/16 03:58:47;;;;;;;3.45;0.20;;;12.20;99.90;;;;;;5026414;28;20046;-72
2022/09/16 04:01:13;;;;;;;0.80;0.13;;;12.20;99.90;;;;;;5027959;28;20060;-72
2022/09/16 04:03:39;;;;;;;2.50;0.20;;;12.20;99.90;;;;;;5027687;28;20501;-72
2022/09/16 04:06:05;;;;;;;2.70;0.13;;;12.20;99.90;;;;;;5026789;28;20462;-72
2022/09/16 04:08:30;;;;;;;6.72;0.98;;;12.20;99.90;;;;;;5027427;28;20524;-72
2022/09/16 04:10:58;;;;;;;3.30;0.20;;;12.20;99.90;;;;;;5022590;28;20037;-72
2022/09/16 04:13:24;;;;;;;1.25;0.40;;;12.20;99.90;;;;;;5027207;28;20036;-71
2022/09/16 04:15:49;;;;;;;1.92;0.20;;;12.20;99.90;;;;;;5027253;28;20112;-71
2022/09/16 04:18:16;;;;;;;4.10;0.35;;;12.20;99.90;;;;;;5028009;28;20030;-71
2022/09/16 04:20:41;;;;;;;1.58;0.30;;;12.30;99.90;;;;;;5028280;28;20591;-71
2022/09/16 04:23:07;;;;;;;3.42;0.20;;;12.30;99.90;;;;;;5034065;28;20123;-72
2022/09/16 04:25:33;;;;;;;7.13;0.32;;;12.20;99.90;;;;;;5033834;28;20034;-72
2022/09/16 04:27:59;;;;;;;5.18;0.35;;;12.20;99.90;;;;;;5036592;28;20026;-72
2022/09/16 04:30:25;;;;;;;1.20;0.32;;;12.10;99.90;;;;;;5033966;28;20029;-70
2022/09/16 04:32:55;;;;;;;3.72;0.80;;;12.10;99.90;;;;;;5039666;28;20602;-72
2022/09/16 04:35:21;;;;;;;1.33;0.60;;;12.10;99.90;;;;;;5039349;28;20029;-72
2022/09/16 04:37:47;;;;;;;4.43;0.30;;;12.00;99.90;;;;;;5030807;28;20099;-72
2022/09/16 04:40:12;;;;;;;2.95;0.30;;;12.00;99.90;;;;;;5025959;28;20049;-70
2022/09/16 04:42:38;;;;;;;2.20;0.63;;;12.00;99.90;;;;;;5027516;28;20056;-71
2022/09/16 04:45:04;;;;;;;1.77;0.20;;;11.90;99.90;;;;;;5024914;28;20029;-72
2022/09/16 04:47:30;;;;;;;1.70;0.17;;;11.80;99.90;;;;;;5026968;28;20102;-73
2022/09/16 04:49:56;;;;;;;4.70;0.35;;;11.80;99.90;;;;;;5026975;28;20571;-71
2022/09/16 04:52:21;;;;;;;2.65;0.30;;;11.80;99.90;;;;;;5025066;28;20033;-70
2022/09/16 04:54:47;;;;;;;4.32;0.38;;;11.70;99.90;;;;;;5026367;28;20042;-72
2022/09/16 04:57:12;;;;;;;1.33;0.20;;;11.70;99.90;;;;;;5027429;28;20387;-70
2022/09/16 04:59:38;;;;;;;0.85;0.13;;;11.70;99.90;;;;;;5027504;28;20179;-70
2022/09/16 05:02:04;;;;;;;1.48;0.50;;;11.70;99.90;;;;;;5025882;28;20036;-72
2022/09/16 05:04:29;;;;;;;1.73;0.40;;;11.70;99.90;;;;;;5024329;28;20069;-72
2022/09/16 05:06:55;;;;;;;2.95;0.40;;;11.80;99.90;;;;;;5025494;28;20038;-72
2022/09/16 05:09:21;;;;;;;1.38;0.20;;;11.80;99.90;;;;;;5026456;28;20037;-71
2022/09/16 05:11:47;;;;;;;1.02;0.20;;;11.80;99.90;;;;;;5026136;28;20041;-71
2022/09/16 05:14:15;;;;;;;3.45;0.10;;;11.70;99.90;;;;;;5026161;28;20033;-71
2022/09/16 05:16:42;;;;;;;5.82;0.40;;;11.70;99.90;;;;;;5026586;28;20106;-69
2022/09/16 05:19:09;;;;;;;0.93;0.30;;;11.70;99.90;;;;;;5025237;28;20048;-69
2022/09/16 05:21:36;;;;;;;2.05;0.40;;;11.70;99.90;;;;;;5025918;28;20044;-72
2022/09/16 05:24:04;;;;;;;3.65;0.50;;;11.70;99.90;;;;;;5025149;28;20033;-71
2022/09/16 05:26:34;;;;;;;4.15;0.77;;;11.70;99.90;;;;;;5026570;28;20434;-71
2022/09/16 05:29:01;;;;;;;1.92;0.30;;;11.80;99.90;;;;;;5022539;28;20036;-72
2022/09/16 05:31:29;;;;;;;0.85;0.25;;;11.80;99.90;;;;;;5016441;28;20038;-72
2022/09/16 05:34:03;;;;;;;2.53;0.50;;;11.70;99.90;;;;;;5028546;28;20026;-73
2022/09/16 05:36:31;;;;;;;2.17;0.40;;;11.70;99.90;;;;;;5028534;28;20045;-72
2022/09/16 05:38:57;;;;;;;3.90;0.70;;;11.60;99.90;;;;;;5024403;28;20030;-69
2022/09/16 05:41:23;;;;;;;2.53;0.28;;;11.60;99.90;;;;;;5028778;28;20048;-70
2022/09/16 05:43:50;;;;;;;4.03;0.28;;;11.60;99.90;;;;;;5031836;28;20109;-72
2022/09/16 05:46:20;;;;;;;6.82;0.50;;;11.50;99.90;;;;;;5027086;28;20034;-73
2022/09/16 05:48:46;;;;;;;;;;;11.50;99.90;;;;;;5028060;28;20044;-71
2022/09/16 05:51:15;;;;;;;2.05;0.40;;;11.50;99.90;;;;;;5035134;28;19913;-71
2022/09/16 05:53:41;;;;;;;5.07;0.40;;;11.40;99.90;;;;;;5034757;28;20045;-72
2022/09/16 05:56:11;;;;;;;4.40;0.45;;;11.50;99.90;;;;;;5029055;28;20098;-73
2022/09/16 05:58:38;;;;;;;3.97;0.30;;;11.40;99.90;;;;;;5025974;28;20072;-72
2022/09/16 06:01:07;;;;;;;8.32;0.50;;;11.50;99.90;;;;;;5030261;28;20115;-72
2022/09/16 06:03:35;;;;;;;4.05;0.52;;;11.60;99.90;;;;;;5026694;28;20124;-72
2022/09/16 06:06:14;;;;;;;5.00;0.40;;;11.70;99.90;;;;;;5030341;28;20021;-69
2022/09/16 06:08:40;;;;;;;2.38;0.43;;;11.70;99.90;;;;;;5027783;28;20022;-69
2022/09/16 06:11:08;;;;;;;7.20;0.70;;;11.70;99.90;;;;;;5026844;28;20060;-71
2022/09/16 06:13:34;;;;;;;1.77;0.30;;;11.70;99.90;;;;;;5024713;28;20060;-72
2022/09/16 06:16:00;;;;;;;0.82;0.22;;;11.70;99.90;;;;;;5025356;28;20087;-71
2022/09/16 06:18:28;;;;;;;1.95;0.63;;;11.70;99.90;;;;;;5024750;28;20033;-72
2022/09/16 06:20:54;;;;;;;2.13;0.63;;;11.70;99.90;;;;;;5022977;28;20124;-70
2022/09/16 06:23:21;;;;;;;10.65;0.90;;;11.60;99.90;;;;;;5023932;28;20029;-70
2022/09/16 06:25:47;;;;;;;1.58;0.20;;;11.70;99.90;;;;;;5024093;28;20036;-69
2022/09/16 06:28:13;;;;;;;4.07;0.40;;;11.70;99.90;;;;;;5023559;28;20033;-72
2022/09/16 06:30:40;;;;;;;2.25;0.40;;;11.70;99.90;;;;;;5021789;28;20037;-70
2022/09/16 06:33:06;;;;;;;3.58;0.60;;;11.70;99.90;;;;;;5019342;28;20037;-73
2022/09/16 06:35:34;;;;;;;3.92;0.47;;;11.80;99.90;;;;;;5024116;28;20042;-71
2022/09/16 06:38:00;;;;;;;3.47;0.40;;;11.90;99.90;;;;;;5023673;28;20041;-72
2022/09/16 06:40:26;;;;;;;4.57;1.23;;;12.10;99.90;;;;;;5025218;28;20129;-70
2022/09/16 06:42:53;;;;;;;4.80;0.63;;;12.20;99.90;;;;;;5023230;28;20120;-71
2022/09/16 06:45:19;;;;;;;7.22;0.73;;;12.40;99.90;;;;;;5024338;28;20040;-70
2022/09/16 06:47:45;;;;;;;2.30;0.45;;;12.50;99.90;;;;;;5025785;28;20041;-69
2022/09/16 06:50:10;;;;;;;4.20;0.52;;;12.50;99.90;;;;;;5023598;28;20517;-67
2022/09/16 06:52:36;;;;;;;5.75;1.10;;;12.40;99.90;;;;;;5029101;28;20039;-72
2022/09/16 06:55:02;;;;;;;6.13;0.50;;;12.40;99.90;;;;;;5024224;28;20042;-68
2022/09/16 06:57:28;;;;;;;4.28;0.50;;;12.30;99.90;;;;;;5024073;28;20488;-70
2022/09/16 06:59:54;;;;;;;5.40;0.40;;;12.30;99.90;;;;;;5023869;28;20061;-70
2022/09/16 07:02:20;;;;;;;10.25;0.60;;;12.20;99.90;;;;;;5022929;28;20071;-69
2022/09/16 07:04:45;;;;;;;3.25;0.43;;;12.30;99.90;;;;;;5017366;28;20034;-71
2022/09/16 07:07:12;;;;;;;5.63;0.82;;;12.30;99.90;;;;;;5019497;28;20044;-70
2022/09/16 07:09:38;;;;;;;3.30;0.90;;;12.40;99.90;;;;;;5019605;28;20530;-70
2022/09/16 07:12:04;;;;;;;5.28;0.95;;;12.40;99.90;;;;;;5018897;28;20048;-70
2022/09/16 07:14:31;;;;;;;4.22;0.30;;;12.50;99.90;;;;;;5018495;28;20787;-70
2022/09/16 07:16:57;;;;;;;4.18;0.73;;;12.50;99.90;;;;;;5026572;28;20044;-72
2022/09/16 07:19:24;;;;;;;4.97;0.65;;;12.60;99.90;;;;;;5029830;28;20572;-72
2022/09/16 07:21:49;;;;;;;2.00;0.13;;;12.70;99.90;;;;;;5025419;28;20044;-70
2022/09/16 07:24:15;;;;;;;2.97;0.40;;;12.70;99.90;;;;;;5014308;28;20128;-69
2022/09/16 07:26:42;;;;;;;3.00;0.28;;;12.80;99.90;;;;;;5022649;28;20038;-69
2022/09/16 07:29:11;;;;;;;2.17;0.22;;;12.80;99.90;;;;;;5022108;28;20936;-70
2022/09/16 07:31:37;;;;;;;1.92;0.10;;;12.80;99.90;;;;;;5022079;28;20033;-70
2022/09/16 07:34:05;;;;;;;2.78;0.30;;;12.90;99.90;;;;;;5022089;28;20524;-71
2022/09/16 07:36:40;;;;;;;3.47;0.32;;;12.90;99.90;;;;;;5023899;28;20041;-71
2022/09/16 07:39:06;;;;;;;1.80;0.20;;;13.00;99.90;;;;;;5022638;28;20036;-71
2022/09/16 07:41:35;;;;;;;4.93;0.30;;;13.00;99.90;;;;;;5021944;28;20041;-71
2022/09/16 07:44:01;;;;;;;6.00;0.73;;;13.10;99.90;;;;;;5023212;28;20056;-71
2022/09/16 07:46:30;;;;;;;0.88;0.30;;;13.30;99.90;;;;;;5025156;28;20045;-70
2022/09/16 07:48:57;;;;;;;2.22;0.45;;;13.40;99.90;;;;;;5022533;28;20168;-71
2022/09/16 07:51:25;;;;;;;4.47;0.47;;;13.60;99.90;;;;;;5022552;28;20053;-71
2022/09/16 07:53:59;;;;;;;1.67;0.20;;;13.80;99.90;;;;;;5021713;28;20041;-71
2022/09/16 07:56:27;;;;;;;1.00;0.10;;;14.00;99.90;;;;;;5019749;28;20049;-71
2022/09/16 07:58:54;;;;;;;1.13;0.17;;;14.00;99.90;;;;;;5020787;28;20030;-70
2022/09/16 08:01:20;;;;;;;0.22;0.10;;;14.10;99.90;;;;;;5016843;28;20050;-71
2022/09/16 08:03:46;;;;;;;0.85;0.20;;;13.90;99.90;;;;;;5018631;28;20049;-70
2022/09/16 08:06:18;;;;;;;1.52;0.20;;;13.60;99.90;;;;;;5019492;28;20033;-71
2022/09/16 08:08:44;;;;;;;0.85;0.10;;;13.30;99.90;;;;;;5019115;28;20029;-71
2022/09/16 08:11:11;;;;;;;0.35;0.10;;;12.90;99.90;;;;;;5020426;28;20049;-70
2022/09/16 08:13:37;;;;;;;0.60;0.22;;;12.70;99.90;;;;;;5021019;28;20120;-70
2022/09/16 08:16:14;;;;;;;0.38;0.10;;;12.40;99.90;;;;;;5022701;28;20517;-71
2022/09/16 08:18:40;;;;;;;0.45;0.00;;;12.20;99.90;;;;;;5019909;28;20202;-70
2022/09/16 08:21:12;;;;;;;2.17;0.10;;;12.10;99.90;;;;;;5023615;28;20036;-68
2022/09/16 08:23:38;;;;;;;2.38;0.10;;;12.00;99.90;;;;;;5023255;28;20076;-71
2022/09/16 08:26:05;;;;;;;1.92;0.90;;;11.90;99.90;;;;;;5024352;28;20057;-70
2022/09/16 08:28:31;;;;;;;2.88;0.28;;;12.00;99.90;;;;;;5022002;28;20054;-72
2022/09/16 08:31:01;;;;;;;1.50;0.30;;;12.10;99.90;;;;;;5014510;28;20087;-67
2022/09/16 08:33:27;;;;;;;4.53;0.20;;;12.30;99.90;;;;;;5026862;28;20546;-72
2022/09/16 08:36:05;;;;;;;12.15;0.20;;;12.40;99.90;;;;;;5026108;28;20445;-69
2022/09/16 08:38:32;;;;;;;1.00;0.17;;;12.60;99.90;;;;;;4997009;28;20033;-69
2022/09/16 08:41:23;;;;;;;0.90;0.22;;;12.80;99.90;;;;;;5013038;28;20048;-69
2022/09/16 08:43:55;;;;;;;4.13;0.20;;;12.90;99.90;;;;;;5029989;28;20036;-71
2022/09/16 08:46:57;;;;;;;5.65;0.22;;;13.00;99.90;;;;;;5019699;28;20106;-71
2022/09/16 08:49:44;;;;;;;2.05;0.15;;;13.10;99.90;;;;;;5018826;28;20036;-69
2022/09/16 08:52:34;;;;;;;1.85;0.40;;;13.00;99.90;;;;;;5032044;28;20029;-71
2022/09/16 08:55:11;;;;;;;2.17;0.28;;;13.00;99.90;;;;;;5026641;28;20441;-72
2022/09/16 08:57:57;;;;;;;2.50;0.30;;;13.10;99.90;;;;;;5022463;28;20128;-69
2022/09/16 09:00:23;;;;;;;4.63;0.70;;;13.20;99.90;;;;;;5018875;28;20073;-71
2022/09/16 09:02:59;;;;;;;5.30;0.45;;;13.20;99.90;;;;;;5021722;28;20068;-70
2022/09/16 09:05:39;;;;;;;2.42;0.60;;;13.20;99.90;;;;;;5013532;28;20046;-72
2022/09/16 09:08:23;;;;;;;3.25;0.30;;;13.20;99.90;;;;;;5014375;28;20133;-69
2022/09/16 09:11:08;;;;;;;2.67;0.20;;;13.10;99.90;;;;;;5018964;28;20087;-70
2022/09/16 09:14:04;;;;;;;1.70;0.20;;;12.90;99.90;;;;;;5020137;28;20116;-70
2022/09/16 09:16:42;;;;;;;0.77;0.40;;;12.80;99.90;;;;;;5018041;28;20072;-70
2022/09/16 09:19:34;;;;;;;0.90;0.15;;;12.80;99.90;;;;;;5015854;28;20029;-71
2022/09/16 09:22:21;;;;;;;2.05;0.10;;;12.90;99.90;;;;;;5017461;28;20037;-68
2022/09/16 09:25:18;;;;;;;2.20;0.20;;;13.10;99.90;;;;;;5016016;28;20033;-68
2022/09/16 09:28:03;;;;;;;0.90;0.10;;;13.20;99.90;;;;;;5014536;28;20072;-70
2022/09/16 09:30:31;;;;;;;0.90;0.30;;;13.40;99.90;;;;;;5016500;28;20087;-71
2022/09/16 09:33:20;;;;;;;0.70;0.20;;;13.30;99.90;;;;;;5016453;28;20095;-72
2022/09/16 09:36:11;;;;;;;2.83;0.10;;;13.20;99.90;;;;;;5015703;28;20107;-69
2022/09/16 09:38:49;;;;;;;1.55;0.10;;;13.30;99.90;;;;;;5018664;28;20060;-70
2022/09/16 09:41:38;;;;;;;1.20;0.15;;;13.30;99.90;;;;;;5016910;28;20112;-70
2022/09/16 09:44:45;;;;;;;2.80;0.10;;;13.50;99.90;;;;;;5015114;28;20036;-71
2022/09/16 09:47:24;;;;;;;6.40;0.20;;;13.80;99.90;;;;;;5017875;28;20133;-69
2022/09/16 09:49:54;;;;;;;2.78;0.10;;;14.10;99.90;;;;;;5015718;28;20029;-71
2022/09/16 09:53:04;;;;;;;7.75;0.38;;;14.20;99.90;;;;;;5023671;28;20040;-69
2022/09/16 09:55:33;;;;;;;2.33;0.47;;;14.30;99.90;;;;;;5020780;28;20045;-69
2022/09/16 09:58:23;;;;;;;1.50;0.20;;;14.40;99.90;;;;;;5015504;28;20087;-70
2022/09/16 10:00:51;;;;;;;1.65;0.10;;;14.50;99.90;;;;;;5013078;28;20465;-72
2022/09/16 10:03:18;;;;;;;2.67;0.75;;;14.70;99.90;;;;;;5017193;28;20038;-70
2022/09/16 10:05:45;;;;;;;1.45;0.10;;;14.90;99.90;;;;;;5019000;28;20061;-70
2022/09/16 10:08:20;;;;;;;1.50;0.20;;;15.00;99.90;;;;;;5014181;28;20748;-70
2022/09/16 10:10:54;;;;;;;3.97;0.30;;;15.20;99.90;;;;;;5015941;28;20052;-70
2022/09/16 10:13:21;;;;;;;4.97;0.38;;;15.40;99.90;;;;;;5017137;28;20041;-71
2022/09/16 10:15:48;;;;;;;7.55;0.85;;;15.20;99.90;;;;;;5018079;28;20037;-69
2022/09/16 10:18:28;;;;;;;4.55;0.50;;;15.00;99.90;;;;;;5020330;28;20033;-71
2022/09/16 10:21:15;;;;;;;1.83;0.17;;;14.70;99.90;;;;;;5023408;28;20045;-70
2022/09/16 10:23:51;;;;;;;2.55;0.30;;;14.30;99.90;;;;;;5024879;28;20040;-70
2022/09/16 10:26:24;;;;;;;1.95;0.38;;;14.00;99.90;;;;;;5022620;28;20021;-69
2022/09/16 10:29:22;;;;;;;0.20;0.10;;;13.70;99.90;;;;;;5030242;28;20025;-70
2022/09/16 10:31:48;;;;;;;3.05;0.20;;;13.30;99.90;;;;;;5003403;28;20552;-70
2022/09/16 10:34:33;;;;;;;2.70;0.30;;;13.10;99.90;;;;;;5024251;28;20048;-71
2022/09/16 10:37:19;;;;;;;2.17;0.17;;;13.00;99.90;;;;;;5021109;28;20048;-72
2022/09/16 10:39:54;;;;;;;1.80;0.20;;;12.90;99.90;;;;;;5022855;28;20026;-69
2022/09/16 10:42:25;;;;;;;2.28;0.10;;;12.70;99.90;;;;;;5019964;28;20037;-71
2022/09/16 10:45:01;;;;;;;0.30;0.08;;;12.60;99.90;;;;;;5017953;28;20041;-71
2022/09/16 10:47:31;;;;;;;1.65;0.15;;;12.50;99.90;;;;;;5020833;28;20112;-70
2022/09/16 10:50:04;;;;;;;3.08;0.10;;;12.50;99.90;;;;;;5017508;28;20083;-70
2022/09/16 10:52:40;;;;;;;0.60;0.05;;;12.80;99.90;;;;;;5016750;28;20044;-71
2022/09/16 10:55:36;;;;;;;3.72;0.20;;;13.00;99.90;;;;;;5012204;28;20038;-69
2022/09/16 10:58:07;;;;;;;3.10;0.20;;;13.30;99.90;;;;;;5019126;28;20053;-72
2022/09/16 11:00:55;;;;;;;1.33;0.10;;;13.50;99.90;;;;;;5017176;28;20032;-69
2022/09/16 11:03:54;;;;;;;4.47;0.10;;;13.70;99.90;;;;;;5013467;28;20041;-71
2022/09/16 11:06:33;;;;;;;2.25;0.20;;;13.90;99.90;;;;;;5015528;28;20080;-69
2022/09/16 11:09:27;;;;;;;1.45;0.20;;;14.00;99.90;;;;;;5012625;28;20044;-71
2022/09/16 11:12:15;;;;;;;1.98;0.10;;;14.20;99.90;;;;;;5017873;28;20057;-71
2022/09/16 11:15:16;;;;;;;1.98;0.17;;;14.40;99.90;;;;;;5014708;28;20557;-70
2022/09/16 11:17:53;;;;;;;6.32;0.65;;;14.60;99.90;;;;;;4977420;28;20050;-69
2022/09/16 11:21:20;;;;;;;3.83;0.20;;;14.50;99.90;;;;;;5011461;28;20045;-70
2022/09/16 11:23:59;;;;;;;2.20;0.57;;;14.40;99.90;;;;;;4963893;28;21913;-68
2022/09/16 11:26:28;;;;;;;4.93;0.20;;;14.20;99.90;;;;;;5021512;28;20037;-70
2022/09/16 11:29:15;;;;;;;5.57;0.20;;;14.10;99.90;;;;;;5020958;28;20021;-69
2022/09/16 11:31:58;;;;;;;2.65;0.13;;;13.90;99.90;;;;;;5020217;28;20033;-70
2022/09/16 11:34:33;;;;;;;0.55;0.10;;;13.80;99.90;;;;;;5017420;28;20029;-70
2022/09/16 11:36:58;;;;;;;2.08;0.30;;;13.70;99.90;;;;;;5016257;28;20049;-72
2022/09/16 11:39:30;;;;;;;1.60;0.10;;;13.70;99.90;;;;;;5025511;28;20037;-71
2022/09/16 11:42:17;;;;;;;3.10;0.03;;;13.60;99.90;;;;;;5023730;28;20152;-70
2022/09/16 11:44:58;;;;;;;2.88;0.20;;;13.60;99.90;;;;;;5014200;28;20052;-70
2022/09/16 11:47:56;;;;;;;;;;;13.60;99.90;;;;;;5019432;28;20099;-71
2022/09/16 11:51:00;;;;;;;1.13;0.10;;;13.50;99.90;;;;;;5013126;28;20695;-70
2022/09/16 11:53:51;;;;;;;4.57;0.75;;;13.50;99.90;;;;;;5020671;28;20041;-69
2022/09/16 11:56:36;;;;;;;1.30;0.15;;;13.40;99.90;;;;;;5020251;28;20042;-70
2022/09/16 11:59:23;;;;;;;2.97;0.20;;;13.40;99.90;;;;;;5019061;28;20034;-71
2022/09/16 12:02:01;;;;;;;1.15;0.30;;;13.50;99.90;;;;;;5025644;28;20042;-70
2022/09/16 12:04:36;;;;;;;1.25;0.13;;;13.60;99.90;;;;;;5027430;28;20046;-70
2022/09/16 12:07:20;;;;;;;1.73;0.10;;;13.80;99.90;;;;;;5022922;28;20033;-71
2022/09/16 12:10:15;;;;;;;3.60;0.77;;;13.90;99.90;;;;;;5016124;28;20112;-69
2022/09/16 12:12:47;;;;;;;4.70;0.80;;;14.00;99.90;;;;;;5022713;28;20091;-70
2022/09/16 12:15:21;;;;;;;1.33;0.65;;;14.10;99.90;;;;;;5017754;28;20037;-72
2022/09/16 12:18:00;;;;;;;1.40;0.17;;;14.20;99.90;;;;;;5022120;28;20052;-70
2022/09/16 12:20:34;;;;;;;2.13;0.20;;;14.20;99.90;;;;;;5019065;28;20100;-70
2022/09/16 12:23:23;;;;;;;2.58;0.30;;;14.30;99.90;;;;;;5019567;28;20509;-71
2022/09/16 12:26:19;;;;;;;5.07;0.35;;;14.40;99.90;;;;;;5020317;28;20045;-68
2022/09/16 12:28:55;;;;;;;4.03;0.90;;;14.50;99.90;;;;;;5021750;28;20087;-72
2022/09/16 12:31:35;;;;;;;6.30;0.57;;;14.60;99.90;;;;;;5018776;28;20120;-70
2022/09/16 12:34:15;;;;;;;5.65;0.85;;;14.60;99.90;;;;;;5020297;28;20036;-71
2022/09/16 12:36:46;;;;;;;6.03;0.60;;;14.60;99.90;;;;;;5018537;28;20052;-71
2022/09/16 12:39:12;;;;;;;7.75;0.77;;;14.60;99.90;;;;;;5021515;28;20041;-71
2022/09/16 12:42:22;;;;;;;9.73;0.90;;;14.70;99.90;;;;;;5022605;28;20037;-71
2022/09/16 12:45:29;;;;;;;10.52;0.98;;;14.70;99.90;;;;;;5005046;28;20049;-71
2022/09/16 12:48:06;;;;;;;8.85;0.77;;;14.60;99.90;;;;;;5019504;28;20050;-70
2022/09/16 12:51:08;;;;;;;5.55;0.55;;;14.60;99.90;;;;;;5020747;28;20524;-72
2022/09/16 12:53:52;;;;;;;7.82;1.05;;;14.60;99.90;;;;;;5017524;28;20080;-72
2022/09/16 12:56:26;;;;;;;8.55;1.10;;;14.60;99.90;;;;;;5019477;28;20165;-71
2022/09/16 12:59:03;;;;;;;6.95;1.20;;;14.70;99.90;;;;;;5019538;28;20053;-72
2022/09/16 13:01:38;;;;;;;7.03;1.35;;;14.80;99.90;;;;;;5021348;28;20025;-71
2022/09/16 13:04:19;;;;;;;4.57;0.80;;;14.80;99.90;;;;;;5019939;28;20030;-69
2022/09/16 13:06:55;;;;;;;6.57;1.08;;;14.80;99.90;;;;;;5021077;28;20180;-71
2022/09/16 13:09:27;;;;;;;6.00;1.00;;;14.80;99.90;;;;;;5015640;28;20806;-70
2022/09/16 13:12:05;;;;;;;4.78;0.93;;;14.80;99.90;;;;;;5019516;28;20033;-70
2022/09/16 13:14:37;;;;;;;4.32;0.40;;;14.70;99.90;;;;;;5017163;28;20641;-71
2022/09/16 13:17:02;;;;;;;3.92;1.17;;;14.60;99.90;;;;;;5017045;28;20153;-71
2022/09/16 13:19:49;;;;;;;8.90;0.57;;;14.60;99.90;;;;;;5016015;28;20128;-70
2022/09/16 13:22:29;;;;;;;6.30;0.80;;;14.60;99.90;;;;;;5012550;28;20037;-70
2022/09/16 13:25:12;;;;;;;7.85;1.08;;;14.60;99.90;;;;;;5022072;28;20096;-67